createdAt,value
2018-09-06T00:00:17.538Z,7.70
2018-09-06T00:02:44.755Z,7.70
2018-09-06T00:05:12.059Z,7.97
2018-09-06T00:07:39.276Z,7.57
2018-09-06T00:10:06.576Z,8.73
2018-09-06T00:12:33.831Z,7.27
2018-09-06T00:15:01.101Z,7.40
2018-09-06T00:17:28.365Z,7.97
2018-09-06T00:19:55.622Z,8.33
2018-09-06T00:25:53.760Z,8.23
2018-09-06T00:28:21.034Z,8.20
2018-09-06T00:30:48.311Z,8.10
2018-09-06T00:33:15.534Z,7.57
2018-09-06T00:35:42.875Z,7.70
2018-09-06T00:38:10.228Z,7.57
2018-09-06T00:40:37.447Z,7.17
2018-09-06T00:43:04.724Z,7.60
2018-09-06T00:45:31.999Z,8.00
2018-09-06T00:47:59.258Z,9.03
2018-09-06T00:50:26.537Z,7.47
2018-09-06T00:52:53.868Z,7.60
2018-09-06T00:55:21.505Z,7.70
2018-09-06T00:57:48.867Z,7.90
2018-09-06T01:00:16.145Z,7.60
2018-09-06T01:02:43.682Z,7.23
2018-09-06T01:05:11.120Z,7.63
2018-09-06T01:07:41.695Z,8.43
2018-09-06T01:10:09.110Z,8.33
2018-09-06T01:12:37.341Z,7.50
2018-09-06T01:15:04.734Z,8.30
2018-09-06T01:17:31.970Z,8.40
2018-09-06T01:19:59.214Z,8.63
2018-09-06T01:22:26.538Z,8.40
2018-09-06T01:24:55.742Z,8.00
2018-09-06T01:27:22.971Z,9.20
2018-09-06T01:29:50.247Z,9.37
2018-09-06T01:32:20.599Z,8.47
2018-09-06T01:34:47.846Z,8.70
2018-09-06T01:37:15.106Z,9.53
2018-09-06T01:39:42.346Z,9.87
2018-09-06T01:42:09.630Z,9.80
2018-09-06T01:44:36.894Z,10.93
2018-09-06T01:47:04.218Z,9.57
2018-09-06T01:49:32.118Z,10.90
2018-09-06T01:51:59.670Z,10.33
2018-09-06T01:54:27.043Z,9.60
2018-09-06T01:56:54.377Z,9.30
2018-09-06T01:59:21.834Z,9.53
2018-09-06T02:01:49.066Z,10.50
2018-09-06T02:04:16.339Z,10.83
2018-09-06T02:06:43.714Z,11.17
2018-09-06T02:09:11.005Z,8.67
2018-09-06T02:11:39.342Z,8.83
2018-09-06T02:14:06.926Z,9.00
2018-09-06T02:16:34.766Z,9.37
2018-09-06T02:19:02.030Z,8.57
2018-09-06T02:21:29.286Z,7.70
2018-09-06T02:23:56.510Z,9.20
2018-09-06T02:26:23.771Z,8.70
2018-09-06T02:28:51.063Z,9.20
2018-09-06T02:31:18.691Z,8.40
2018-09-06T02:33:46.006Z,9.00
2018-09-06T02:36:13.254Z,9.27
2018-09-06T02:38:40.543Z,8.70
2018-09-06T02:41:07.822Z,8.77
2018-09-06T02:43:35.032Z,8.90
2018-09-06T02:46:02.327Z,11.40
2018-09-06T02:48:35.200Z,9.80
2018-09-06T02:51:08.222Z,10.40
2018-09-06T02:53:35.471Z,9.77
2018-09-06T02:56:02.751Z,9.87
2018-09-06T02:58:30.018Z,9.57
2018-09-06T03:00:58.227Z,9.53
2018-09-06T03:03:25.451Z,9.40
2018-09-06T03:05:52.742Z,10.27
2018-09-06T03:08:19.978Z,9.23
2018-09-06T03:10:49.301Z,10.17
2018-09-06T03:13:16.566Z,10.63
2018-09-06T03:15:43.867Z,8.90
2018-09-06T03:18:11.070Z,9.40
2018-09-06T03:20:38.365Z,9.60
2018-09-06T03:23:05.724Z,10.40
2018-09-06T03:25:33.277Z,10.20
2018-09-06T03:28:02.930Z,11.00
2018-09-06T03:30:30.158Z,9.90
2018-09-06T03:33:01.376Z,10.50
2018-09-06T03:35:28.802Z,10.00
2018-09-06T03:37:56.075Z,11.47
2018-09-06T03:40:23.315Z,9.80
2018-09-06T03:42:50.705Z,11.87
2018-09-06T03:45:17.994Z,9.80
2018-09-06T03:47:45.265Z,10.90
2018-09-06T03:50:12.510Z,10.13
2018-09-06T03:52:40.027Z,11.17
2018-09-06T03:55:07.413Z,11.30
2018-09-06T03:57:34.865Z,10.67
2018-09-06T04:00:02.107Z,10.83
2018-09-06T04:02:29.343Z,10.40
2018-09-06T04:04:56.594Z,11.50
2018-09-06T04:07:23.874Z,11.00
2018-09-06T04:09:51.098Z,12.20
2018-09-06T04:12:19.367Z,12.03
2018-09-06T04:14:46.581Z,12.00
2018-09-06T04:17:13.842Z,12.03
2018-09-06T04:19:42.378Z,12.17
2018-09-06T04:22:09.603Z,11.73
2018-09-06T04:24:36.867Z,12.70
2018-09-06T04:27:05.223Z,12.27
2018-09-06T04:29:32.402Z,12.30
2018-09-06T04:31:59.670Z,12.73
2018-09-06T04:34:26.979Z,13.37
2018-09-06T04:36:54.239Z,13.40
2018-09-06T04:39:21.479Z,13.40
2018-09-06T04:41:48.730Z,13.37
2018-09-06T04:44:16.166Z,13.50
2018-09-06T04:46:44.457Z,13.43
2018-09-06T04:49:11.652Z,13.20
2018-09-06T04:51:38.985Z,13.90
2018-09-06T04:54:06.211Z,11.50
2018-09-06T04:56:33.450Z,13.80
2018-09-06T04:59:00.806Z,14.03
2018-09-06T05:01:28.230Z,15.07
2018-09-06T05:03:55.523Z,13.47
2018-09-06T05:06:22.706Z,13.57
2018-09-06T05:08:49.986Z,13.50
2018-09-06T05:11:17.339Z,13.37
2018-09-06T05:13:44.654Z,12.60
2018-09-06T05:16:11.879Z,13.90
2018-09-06T05:18:39.187Z,13.30
2018-09-06T05:21:06.614Z,13.40
2018-09-06T05:23:33.991Z,14.03
2018-09-06T05:26:01.255Z,13.87
2018-09-06T05:28:28.526Z,13.67
2018-09-06T05:30:55.840Z,13.47
2018-09-06T05:33:23.078Z,13.13
2018-09-06T05:35:50.328Z,12.97
2018-09-06T05:38:17.590Z,13.30
2018-09-06T05:40:44.854Z,14.43
2018-09-06T05:43:12.215Z,15.70
2018-09-06T05:45:40.201Z,13.60
2018-09-06T05:48:07.571Z,13.43
2018-09-06T05:50:34.891Z,13.33
2018-09-06T05:53:02.455Z,14.63
2018-09-06T05:55:30.023Z,13.63
2018-09-06T05:57:57.273Z,13.33
2018-09-06T06:00:30.399Z,13.70
2018-09-06T06:02:59.597Z,14.53
2018-09-06T06:05:26.890Z,14.93
2018-09-06T06:08:06.158Z,13.10
2018-09-06T06:10:33.531Z,14.00
2018-09-06T06:13:00.791Z,12.33
2018-09-06T06:15:28.100Z,13.23
2018-09-06T06:17:55.383Z,13.93
2018-09-06T06:20:22.624Z,13.87
2018-09-06T06:22:49.846Z,14.53
2018-09-06T06:25:17.242Z,12.67
2018-09-06T06:27:44.539Z,12.70
2018-09-06T06:30:11.826Z,13.23
2018-09-06T06:32:39.039Z,12.87
2018-09-06T06:35:06.318Z,11.93
2018-09-06T06:37:33.784Z,12.60
2018-09-06T06:40:00.983Z,11.20
2018-09-06T06:42:28.418Z,13.60
2018-09-06T06:44:55.738Z,12.80
2018-09-06T06:47:22.955Z,12.93
2018-09-06T06:49:50.479Z,12.47
2018-09-06T06:52:17.818Z,12.70
2018-09-06T06:54:45.035Z,11.60
2018-09-06T06:57:12.307Z,13.07
2018-09-06T06:59:39.658Z,11.63
2018-09-06T07:02:07.226Z,11.93
2018-09-06T07:04:34.635Z,12.03
2018-09-06T07:07:02.291Z,10.93
2018-09-06T07:09:29.450Z,11.10
2018-09-06T07:11:56.682Z,11.17
2018-09-06T07:14:24.016Z,10.77
2018-09-06T07:16:51.210Z,11.33
2018-09-06T07:19:18.628Z,11.67
2018-09-06T07:21:45.899Z,12.03
2018-09-06T07:24:13.135Z,12.23
2018-09-06T07:26:40.492Z,11.73
2018-09-06T07:29:07.794Z,10.90
2018-09-06T07:31:35.027Z,11.87
2018-09-06T07:34:02.285Z,12.13
2018-09-06T07:36:29.574Z,11.40
2018-09-06T07:38:56.832Z,11.57
2018-09-06T07:41:24.169Z,11.63
2018-09-06T07:43:51.383Z,10.77
2018-09-06T07:46:18.632Z,11.30
2018-09-06T07:48:45.895Z,11.13
2018-09-06T07:51:13.152Z,10.17
2018-09-06T07:53:40.491Z,11.33
2018-09-06T07:56:08.139Z,10.67
2018-09-06T07:58:35.388Z,11.70
2018-09-06T08:01:02.588Z,10.60
2018-09-06T08:03:29.944Z,10.37
2018-09-06T08:05:57.194Z,10.73
2018-09-06T08:08:24.375Z,10.57
2018-09-06T08:10:51.592Z,10.20
2018-09-06T08:13:18.787Z,9.83
2018-09-06T08:15:46.195Z,10.43
2018-09-06T08:18:13.391Z,10.53
2018-09-06T08:20:40.677Z,9.67
2018-09-06T08:23:07.916Z,9.50
2018-09-06T08:25:35.129Z,9.87
2018-09-06T08:28:02.367Z,9.73
2018-09-06T08:30:29.631Z,9.27
2018-09-06T08:32:56.831Z,9.90
2018-09-06T08:35:24.071Z,8.87
2018-09-06T08:37:51.296Z,9.10
2018-09-06T08:40:18.495Z,9.17
2018-09-06T08:42:45.741Z,8.77
2018-09-06T08:45:13.223Z,9.77
2018-09-06T08:47:40.464Z,8.97
2018-09-06T08:50:07.655Z,9.70
2018-09-06T08:52:35.000Z,9.50
2018-09-06T08:55:02.213Z,9.00
2018-09-06T08:57:29.553Z,8.00
2018-09-06T08:59:56.799Z,8.90
2018-09-06T09:02:24.104Z,8.97
2018-09-06T09:04:51.287Z,8.67
2018-09-06T09:07:18.538Z,8.60
2018-09-06T09:09:45.782Z,8.83
2018-09-06T09:12:13.067Z,7.90
2018-09-06T09:14:40.296Z,8.60
2018-09-06T09:17:07.547Z,7.57
2018-09-06T09:19:34.957Z,7.87
2018-09-06T09:22:02.350Z,8.50
2018-09-06T09:24:29.646Z,8.30
2018-09-06T09:26:56.846Z,8.00
2018-09-06T09:29:24.306Z,7.60
2018-09-06T09:31:51.616Z,8.73
2018-09-06T09:34:18.943Z,7.80
2018-09-06T09:36:46.243Z,8.80
2018-09-06T09:39:13.549Z,8.27
2018-09-06T09:41:40.952Z,7.93
2018-09-06T09:44:08.259Z,6.83
2018-09-06T09:49:02.343Z,7.30
2018-09-06T09:51:29.550Z,8.20
2018-09-06T09:53:56.914Z,7.80
2018-09-06T09:56:24.238Z,6.73
2018-09-06T09:58:52.206Z,6.80
2018-09-06T10:01:19.705Z,7.63
2018-09-06T10:03:52.849Z,7.07
2018-09-06T10:06:25.756Z,6.90
2018-09-06T10:08:59.022Z,7.50
2018-09-06T10:11:26.422Z,7.63
2018-09-06T10:13:53.762Z,7.37
2018-09-06T10:16:23.555Z,7.37
2018-09-06T10:18:50.813Z,7.40
2018-09-06T10:21:18.155Z,7.27
2018-09-06T10:23:45.679Z,6.63
2018-09-06T10:26:13.388Z,7.40
2018-09-06T10:28:40.675Z,7.57
2018-09-06T10:31:08.969Z,7.57
2018-09-06T10:33:36.243Z,6.97
2018-09-06T10:36:03.647Z,7.00
2018-09-06T10:38:31.110Z,7.93
2018-09-06T10:40:58.527Z,7.30
2018-09-06T10:43:26.038Z,7.83
2018-09-06T10:45:53.280Z,7.70
2018-09-06T10:48:20.542Z,7.20
2018-09-06T10:50:47.804Z,7.40
2018-09-06T10:53:15.103Z,7.10
2018-09-06T10:55:42.459Z,7.13
2018-09-06T10:58:09.889Z,6.97
2018-09-06T11:00:37.220Z,7.03
2018-09-06T11:03:04.482Z,7.40
2018-09-06T11:05:32.122Z,7.03
2018-09-06T11:07:59.548Z,7.83
2018-09-06T11:10:26.762Z,7.33
2018-09-06T11:12:54.011Z,6.50
2018-09-06T11:15:21.240Z,7.07
2018-09-06T11:17:48.563Z,7.03
2018-09-06T11:20:15.823Z,7.40
2018-09-06T11:22:43.273Z,6.50
2018-09-06T11:25:10.323Z,7.37
2018-09-06T11:27:37.818Z,6.87
2018-09-06T11:30:05.067Z,6.60
2018-09-06T11:32:32.378Z,6.97
2018-09-06T11:34:59.690Z,6.90
2018-09-06T11:37:26.978Z,6.80
2018-09-06T11:39:54.379Z,6.40
2018-09-06T11:42:21.686Z,6.47
2018-09-06T11:44:48.995Z,7.00
2018-09-06T11:47:16.353Z,6.60
2018-09-06T11:49:43.635Z,6.97
2018-09-06T11:52:10.991Z,5.93
2018-09-06T11:54:38.243Z,6.23
2018-09-06T11:57:05.531Z,5.70
2018-09-06T11:59:32.750Z,6.60
2018-09-06T12:02:00.090Z,5.40
2018-09-06T12:04:27.431Z,6.30
2018-09-06T12:06:54.764Z,6.93
2018-09-06T12:09:22.022Z,6.10
2018-09-06T12:11:49.306Z,5.93
2018-09-06T12:14:16.659Z,5.47
2018-09-06T12:16:44.231Z,5.90
2018-09-06T12:19:11.814Z,5.47
2018-09-06T12:21:39.143Z,5.53
2018-09-06T12:24:06.423Z,5.63
2018-09-06T12:26:33.646Z,5.90
2018-09-06T12:29:00.872Z,6.00
2018-09-06T12:31:28.123Z,5.40
2018-09-06T12:33:55.430Z,5.33
2018-09-06T12:36:22.667Z,6.20
2018-09-06T12:38:50.011Z,6.20
2018-09-06T12:41:17.150Z,6.00
2018-09-06T12:43:44.429Z,6.37
2018-09-06T12:46:11.636Z,6.07
2018-09-06T12:48:38.887Z,6.00
2018-09-06T12:51:06.152Z,6.30
2018-09-06T12:53:33.358Z,5.80
2018-09-06T12:56:00.598Z,5.93
2018-09-06T12:58:27.931Z,5.80
2018-09-06T13:00:55.130Z,6.57
2018-09-06T13:03:22.943Z,6.13
2018-09-06T13:05:50.581Z,6.00
2018-09-06T13:08:17.795Z,6.10
2018-09-06T13:10:44.994Z,6.30
2018-09-06T13:13:12.182Z,6.80
2018-09-06T13:15:39.385Z,6.10
2018-09-06T13:18:06.584Z,5.93
2018-09-06T13:20:33.776Z,5.93
2018-09-06T13:23:00.982Z,6.20
2018-09-06T13:25:28.200Z,4.77
2018-09-06T13:27:55.411Z,7.13
2018-09-06T13:30:22.591Z,5.63
2018-09-06T13:32:49.750Z,6.50
2018-09-06T13:35:16.950Z,6.23
2018-09-06T13:37:44.143Z,6.60
2018-09-06T13:40:11.354Z,6.63
2018-09-06T13:42:38.554Z,6.20
2018-09-06T13:45:05.805Z,6.30
2018-09-06T13:47:33.022Z,6.20
2018-09-06T13:50:00.234Z,5.63
2018-09-06T13:52:27.444Z,7.30
2018-09-06T13:54:54.648Z,6.03
2018-09-06T13:57:22.090Z,6.57
2018-09-06T13:59:49.294Z,6.53
2018-09-06T14:02:17.591Z,5.73
2018-09-06T14:04:44.782Z,6.63
2018-09-06T14:07:11.995Z,6.17
2018-09-06T14:09:39.301Z,5.93
2018-09-06T14:12:06.610Z,6.33
2018-09-06T14:14:33.794Z,6.20
2018-09-06T14:17:01.210Z,6.00
2018-09-06T14:19:29.462Z,6.50
2018-09-06T14:21:56.679Z,5.17
2018-09-06T14:24:23.891Z,6.03
2018-09-06T14:26:51.275Z,5.97
2018-09-06T14:29:18.490Z,6.43
2018-09-06T14:31:45.747Z,6.27
2018-09-06T14:34:13.103Z,6.70
2018-09-06T14:36:40.319Z,6.10
2018-09-06T14:39:08.105Z,7.17
2018-09-06T14:41:35.565Z,6.93
2018-09-06T14:44:02.981Z,6.37
2018-09-06T14:46:30.158Z,6.50
2018-09-06T14:48:57.347Z,7.40
2018-09-06T14:51:24.531Z,6.50
2018-09-06T14:53:51.732Z,7.03
2018-09-06T14:56:19.114Z,8.07
2018-09-06T14:58:46.345Z,7.80
2018-09-06T15:01:13.516Z,8.20
2018-09-06T15:03:40.699Z,8.00
2018-09-06T15:06:08.170Z,8.90
2018-09-06T15:08:35.475Z,9.10
2018-09-06T15:11:02.666Z,10.10
2018-09-06T15:13:29.893Z,12.50
2018-09-06T15:15:57.085Z,13.77
2018-09-06T15:18:24.307Z,14.83
2018-09-06T15:20:51.742Z,14.80
2018-09-06T15:23:18.958Z,14.17
2018-09-06T15:25:47.331Z,13.70
2018-09-06T15:28:14.666Z,15.37
2018-09-06T15:30:41.931Z,16.73
2018-09-06T15:33:09.515Z,17.60
2018-09-06T15:35:36.842Z,16.90
2018-09-06T15:38:04.126Z,17.63
2018-09-06T15:40:31.426Z,15.80
2018-09-06T15:42:58.699Z,17.17
2018-09-06T15:45:25.975Z,17.63
2018-09-06T15:47:53.327Z,16.33
2018-09-06T15:50:20.550Z,19.90
2018-09-06T15:52:47.851Z,16.70
2018-09-06T15:55:15.186Z,16.47
2018-09-06T15:57:42.580Z,16.70
2018-09-06T16:00:09.899Z,17.10
2018-09-06T16:02:37.102Z,17.87
2018-09-06T16:05:04.415Z,17.37
2018-09-06T16:07:31.638Z,17.87
2018-09-06T16:09:58.895Z,19.30
2018-09-06T16:12:27.309Z,18.63
2018-09-06T16:14:54.446Z,18.93
2018-09-06T16:17:21.708Z,20.10
2018-09-06T16:19:48.912Z,20.20
2018-09-06T16:22:16.094Z,20.50
2018-09-06T16:24:43.307Z,20.50
2018-09-06T16:27:10.487Z,18.03
2018-09-06T16:29:37.691Z,19.23
2018-09-06T16:32:05.889Z,19.70
2018-09-06T16:34:33.322Z,19.00
2018-09-06T16:37:00.935Z,20.67
2018-09-06T16:39:29.203Z,19.60
2018-09-06T16:41:56.412Z,18.07
2018-09-06T16:44:23.618Z,18.00
2018-09-06T16:46:50.865Z,17.63
2018-09-06T16:49:18.058Z,18.20
2018-09-06T16:51:45.263Z,17.13
2018-09-06T16:54:12.497Z,18.20
2018-09-06T16:56:39.698Z,19.17
2018-09-06T16:59:06.914Z,17.80
2018-09-06T17:01:34.136Z,18.33
2018-09-06T17:04:01.338Z,17.30
2018-09-06T17:06:28.558Z,17.57
2018-09-06T17:08:55.754Z,17.53
2018-09-06T17:11:22.943Z,18.17
2018-09-06T17:13:50.155Z,19.10
2018-09-06T17:16:17.518Z,19.33
2018-09-06T17:18:44.751Z,20.67
2018-09-06T17:21:12.224Z,20.57
2018-09-06T17:23:39.429Z,19.13
2018-09-06T17:26:06.968Z,20.50
2018-09-06T17:28:34.288Z,21.40
2018-09-06T17:31:01.507Z,20.27
2018-09-06T17:33:28.714Z,22.00
2018-09-06T17:35:56.247Z,21.50
2018-09-06T17:38:23.534Z,22.00
2018-09-06T17:40:50.763Z,20.90
2018-09-06T17:43:17.954Z,20.90
2018-09-06T17:45:45.163Z,21.03
2018-09-06T17:48:12.409Z,21.60
2018-09-06T17:50:39.718Z,22.27
2018-09-06T17:53:06.946Z,23.83
2018-09-06T17:55:35.335Z,24.90
2018-09-06T17:58:02.732Z,25.03
2018-09-06T18:00:29.970Z,25.73
2018-09-06T18:02:57.230Z,27.20
2018-09-06T18:05:24.450Z,27.87
2018-09-06T18:07:52.082Z,29.53
2018-09-06T18:10:19.311Z,28.33
2018-09-06T18:12:46.739Z,30.87
2018-09-06T18:15:13.950Z,32.87
2018-09-06T18:17:41.262Z,30.30
2018-09-06T18:20:08.408Z,33.10
2018-09-06T18:22:35.643Z,34.83
2018-09-06T18:25:02.908Z,33.73
2018-09-06T18:27:30.158Z,37.57
2018-09-06T18:29:57.426Z,36.53
2018-09-06T18:32:24.690Z,35.87
2018-09-06T18:34:52.607Z,38.30
2018-09-06T18:37:19.886Z,37.87
2018-09-06T18:39:47.128Z,37.27
2018-09-06T18:42:15.411Z,39.20
2018-09-06T18:44:42.586Z,40.40
2018-09-06T18:47:09.859Z,39.50
2018-09-06T18:49:38.159Z,40.37
2018-09-06T18:52:05.359Z,48.77
2018-09-06T18:54:32.562Z,44.37
2018-09-06T18:56:59.762Z,44.30
2018-09-06T18:59:28.250Z,43.90
2018-09-06T19:01:55.455Z,43.40
2018-09-06T19:04:22.610Z,39.47
2018-09-06T19:06:49.819Z,37.37
2018-09-06T19:09:17.029Z,39.57
2018-09-06T19:11:44.280Z,39.10
2018-09-06T19:14:11.490Z,39.23
2018-09-06T19:16:38.761Z,41.00
2018-09-06T19:19:05.955Z,40.57
2018-09-06T19:21:33.171Z,39.70
2018-09-06T19:24:00.536Z,40.00
2018-09-06T19:26:27.722Z,40.40
2018-09-06T19:28:54.915Z,40.90
2018-09-06T19:31:22.231Z,44.43
2018-09-06T19:33:49.582Z,43.00
2018-09-06T19:36:16.803Z,43.10
2018-09-06T19:38:44.015Z,42.57
2018-09-06T19:41:11.230Z,44.00
2018-09-06T19:43:38.590Z,42.00
2018-09-06T19:46:06.317Z,43.30
2018-09-06T19:48:33.543Z,44.30
2018-09-06T19:51:00.747Z,44.90
2018-09-06T19:53:27.974Z,45.80
2018-09-06T19:55:55.254Z,44.27
2018-09-06T19:58:22.491Z,45.40
2018-09-06T20:00:49.681Z,44.60
2018-09-06T20:03:16.899Z,46.00
2018-09-06T20:05:44.137Z,44.87
2018-09-06T20:08:11.561Z,47.53
2018-09-06T20:10:38.710Z,47.77
2018-09-06T20:13:05.952Z,47.73
2018-09-06T20:15:33.170Z,47.90
2018-09-06T20:18:00.363Z,46.80
2018-09-06T20:20:27.678Z,46.40
2018-09-06T20:22:54.888Z,44.40
2018-09-06T20:25:22.075Z,44.20
2018-09-06T20:27:49.333Z,45.00
2018-09-06T20:30:16.522Z,48.97
2018-09-06T20:32:43.747Z,46.73
2018-09-06T20:35:10.962Z,46.17
2018-09-06T20:37:38.146Z,47.50
2018-09-06T20:40:05.409Z,48.70
2018-09-06T20:42:33.434Z,48.30
2018-09-06T20:45:00.671Z,50.23
2018-09-06T20:47:27.878Z,47.20
2018-09-06T20:49:55.106Z,48.03
2018-09-06T20:52:22.346Z,50.77
2018-09-06T20:54:49.607Z,45.80
2018-09-06T20:57:16.795Z,46.30
2018-09-06T20:59:44.011Z,47.93
2018-09-06T21:02:17.062Z,46.43
2018-09-06T21:04:44.337Z,47.97
2018-09-06T21:07:11.544Z,48.70
2018-09-06T21:09:38.792Z,48.70
2018-09-06T21:12:06.014Z,51.10
2018-09-06T21:14:33.221Z,50.93
2018-09-06T21:17:00.398Z,50.30
2018-09-06T21:19:27.587Z,50.53
2018-09-06T21:21:55.033Z,48.70
2018-09-06T21:24:22.242Z,47.67
2018-09-06T21:26:49.454Z,50.50
2018-09-06T21:29:16.647Z,51.13
2018-09-06T21:31:43.870Z,51.00
2018-09-06T21:34:11.123Z,49.67
2018-09-06T21:36:38.367Z,51.83
2018-09-06T21:39:07.800Z,51.67
2018-09-06T21:41:35.001Z,55.33
2018-09-06T21:44:04.113Z,54.53
2018-09-06T21:46:31.490Z,53.67
2018-09-06T21:48:58.714Z,55.17
2018-09-06T21:51:25.992Z,59.83
2018-09-06T21:53:53.275Z,53.03
2018-09-06T21:56:20.494Z,58.50
2018-09-06T21:58:47.870Z,57.90
2018-09-06T22:01:15.151Z,61.67
2018-09-06T22:03:48.195Z,61.07
2018-09-06T22:06:15.382Z,63.17
2018-09-06T22:08:42.562Z,64.57
2018-09-06T22:11:09.767Z,66.40
2018-09-06T22:13:36.951Z,68.17
2018-09-06T22:16:05.274Z,70.87
2018-09-06T22:18:32.502Z,68.77
2018-09-06T22:20:59.695Z,72.90
2018-09-06T22:23:26.901Z,69.57
2018-09-06T22:25:54.131Z,71.40
2018-09-06T22:28:21.308Z,71.87
2018-09-06T22:30:50.208Z,68.10
2018-09-06T22:33:17.474Z,69.87
2018-09-06T22:35:44.686Z,70.20
2018-09-06T22:38:11.886Z,68.97
2018-09-06T22:40:39.098Z,68.27
2018-09-06T22:43:06.475Z,66.67
2018-09-06T22:45:33.722Z,66.67
2018-09-06T22:48:00.994Z,63.97
2018-09-06T22:50:28.469Z,63.07
2018-09-06T22:52:55.693Z,60.47
2018-09-06T22:55:22.937Z,62.67
2018-09-06T22:57:50.230Z,63.40
2018-09-06T23:00:19.856Z,62.07
2018-09-06T23:02:53.157Z,60.43
2018-09-06T23:05:22.924Z,61.90
2018-09-06T23:07:50.604Z,62.50
2018-09-06T23:10:18.251Z,59.53
2018-09-06T23:12:47.460Z,62.60
2018-09-06T23:15:16.843Z,62.37
2018-09-06T23:18:01.974Z,61.57
2018-09-06T23:20:30.253Z,61.67
2018-09-06T23:22:58.033Z,61.13
2018-09-06T23:25:31.506Z,58.10
2018-09-06T23:28:15.729Z,60.80
2018-09-06T23:30:43.070Z,59.03
2018-09-06T23:33:10.456Z,55.87
2018-09-06T23:35:38.523Z,56.20
2018-09-06T23:38:06.263Z,57.37
2018-09-06T23:40:38.951Z,55.60
2018-09-06T23:43:06.706Z,58.70
2018-09-06T23:45:33.990Z,58.13
2018-09-06T23:48:01.607Z,60.30
2018-09-06T23:50:28.814Z,59.37
2018-09-06T23:52:56.119Z,58.87
2018-09-06T23:55:23.358Z,59.67
2018-09-06T23:57:50.624Z,60.73
